Terminal Aerodrome Forecast
Issued by NWS Pittsburgh, PA

Current Version | Previous Version | Text Only | Print | Product List | Glossary Off
Versions: 1 2 3 4 5 6 7 8 9 10 11 12 13 14 15 16 17 18 19 20 21 22 23 24 25 26 27 28 29 30 31 32 33 34 35 36 37 38 39

000
FTUS41 KPBZ 300555
TAFPIT
TAF
KPIT 300555Z 3006/0112 34006KT P6SM OVC010
     FM301200 09006KT P6SM OVC015
     FM301500 14008KT P6SM BKN050
     FM302200 12005KT 3SM -RA OVC035
     FM010200 12005KT 2SM -RA BR OVC020=

USA.gov is the U.S. government's official web portal to all federal, state and local government web resources and services.